Time,TemperatureF,DewpointF,PressureIn,WindDirection,WindDirectionDegrees,WindSpeedMPH,WindSpeedGustMPH,Humidity,HourlyPrecipIn,Conditions,Clouds,dailyrainin,SoftwareType,DateUTC
2013-01-09 00:00:00,28.4,12.9,30.40,SW,230,0.0,0.0,52,0.00,,---,0.00,VWS V12.08,2013-01-09 05:00:00,
2013-01-09 00:20:00,28.6,13.6,30.40,SW,230,0.0,0.0,53,0.00,,---,0.00,VWS V12.08,2013-01-09 05:20:00,
2013-01-09 00:39:00,28.6,13.6,30.40,SW,230,0.0,0.0,53,0.00,,---,0.00,VWS V12.08,2013-01-09 05:39:00,
2013-01-09 01:00:00,28.8,13.7,30.37,SW,230,0.0,0.0,53,0.00,,---,0.00,VWS V12.08,2013-01-09 06:00:00,
2013-01-09 01:20:00,28.0,13.5,30.40,SW,230,0.0,0.0,54,0.00,,---,0.00,VWS V12.08,2013-01-09 06:20:00,
2013-01-09 01:40:00,28.2,13.7,30.40,SW,231,0.0,0.0,54,0.00,,---,0.00,VWS V12.08,2013-01-09 06:40:00,
2013-01-09 02:00:00,28.2,13.7,30.37,SW,229,0.0,0.0,54,0.00,,---,0.00,VWS V12.08,2013-01-09 07:00:00,
2013-01-09 02:20:00,28.6,14.0,30.37,SW,231,0.0,0.0,54,0.00,,---,0.00,VWS V12.08,2013-01-09 07:20:00,
2013-01-09 02:39:00,28.9,15.3,30.37,SW,231,0.0,0.0,56,0.00,,---,0.00,VWS V12.08,2013-01-09 07:39:00,
2013-01-09 03:00:00,29.5,15.8,30.37,SW,231,0.0,0.0,56,0.00,,---,0.00,VWS V12.08,2013-01-09 08:00:00,
2013-01-09 03:19:00,29.7,15.9,30.37,SW,230,0.0,0.0,56,0.00,,---,0.00,VWS V12.08,2013-01-09 08:19:00,
2013-01-09 03:39:00,29.5,15.8,30.37,NW,304,0.0,0.0,56,0.00,,---,0.00,VWS V12.08,2013-01-09 08:39:00,
2013-01-09 04:00:00,29.7,15.9,30.37,NW,305,0.0,0.0,56,0.00,,---,0.00,VWS V12.08,2013-01-09 09:00:00,
2013-01-09 04:20:00,29.1,15.4,30.37,NW,305,0.0,0.0,56,0.00,,---,0.00,VWS V12.08,2013-01-09 09:20:00,
2013-01-09 04:39:00,28.8,15.1,30.37,NW,305,0.0,0.0,56,0.00,,---,0.00,VWS V12.08,2013-01-09 09:39:00,
2013-01-09 04:59:00,28.2,14.6,30.37,NW,305,0.0,0.0,56,0.00,,---,0.00,VWS V12.08,2013-01-09 09:59:00,
2013-01-09 05:19:00,27.3,13.3,30.37,NW,305,0.0,0.0,55,0.00,,---,0.00,VWS V12.08,2013-01-09 10:19:00,
2013-01-09 05:39:00,27.0,13.4,30.37,NW,306,0.0,0.0,56,0.00,,---,0.00,VWS V12.08,2013-01-09 10:39:00,
2013-01-09 06:00:00,26.8,12.8,30.37,NW,305,0.0,0.0,55,0.00,,---,0.00,VWS V12.08,2013-01-09 11:00:00,
2013-01-09 06:19:00,26.8,12.8,30.37,NW,305,0.0,0.0,55,0.00,,---,0.00,VWS V12.08,2013-01-09 11:19:00,
2013-01-09 06:39:00,26.1,12.1,30.37,NW,305,0.0,0.0,55,0.00,,---,0.00,VWS V12.08,2013-01-09 11:39:00,
2013-01-09 06:59:00,26.1,12.6,30.37,NW,305,0.0,0.0,56,0.00,,---,0.00,VWS V12.08,2013-01-09 11:59:00,
2013-01-09 07:19:00,26.2,12.7,30.37,NW,306,0.0,0.0,56,0.00,,---,0.00,VWS V12.08,2013-01-09 12:19:00,
2013-01-09 07:39:00,26.6,12.6,30.37,NW,304,0.0,0.0,55,0.00,,---,0.00,VWS V12.08,2013-01-09 12:39:00,
2013-01-09 07:59:00,27.0,13.0,30.37,NW,305,0.0,0.0,55,0.00,,---,0.00,VWS V12.08,2013-01-09 12:59:00,
2013-01-09 08:19:00,27.7,14.1,30.37,NW,305,0.0,0.0,56,0.00,,---,0.00,VWS V12.08,2013-01-09 13:19:00,
2013-01-09 08:39:00,28.9,15.3,30.37,NW,305,0.0,0.0,56,0.00,,---,0.00,VWS V12.08,2013-01-09 13:39:00,
2013-01-09 08:59:00,30.4,16.6,30.37,NW,304,0.0,0.0,56,0.00,,---,0.00,VWS V12.08,2013-01-09 13:59:00,
2013-01-09 09:19:00,31.8,18.4,30.37,NW,306,0.0,0.0,57,0.00,,---,0.00,VWS V12.08,2013-01-09 14:19:00,
2013-01-09 09:39:00,33.4,19.0,30.37,NW,304,0.0,0.0,55,0.00,,---,0.00,VWS V12.08,2013-01-09 14:39:00,
2013-01-09 09:59:00,35.1,18.6,30.34,NW,305,0.0,0.0,51,0.00,,---,0.00,VWS V12.08,2013-01-09 14:59:00,
2013-01-09 10:19:00,37.2,20.6,30.34,NW,304,0.0,0.0,51,0.00,,---,0.00,VWS V12.08,2013-01-09 15:19:00,
2013-01-09 10:39:00,39.6,20.0,30.34,NW,305,0.0,0.0,45,0.00,,---,0.00,VWS V12.08,2013-01-09 15:39:00,
2013-01-09 11:00:00,41.4,21.1,30.31,West,280,0.0,4.0,44,0.00,,---,0.00,VWS V12.08,2013-01-09 16:00:00,
2013-01-09 11:19:00,44.1,23.0,30.31,West,262,2.7,5.4,43,0.00,,---,0.00,VWS V12.08,2013-01-09 16:19:00,
2013-01-09 11:39:00,45.5,23.6,30.31,SSW,212,0.0,6.3,42,0.00,,---,0.00,VWS V12.08,2013-01-09 16:39:00,
2013-01-09 12:00:00,46.4,24.5,30.28,West,259,3.1,6.3,42,0.00,,---,0.00,VWS V12.08,2013-01-09 17:00:00,
2013-01-09 12:19:00,47.3,25.3,30.28,SSW,193,3.1,7.6,42,0.00,,---,0.00,VWS V12.08,2013-01-09 17:19:00,
2013-01-09 12:39:00,46.9,25.0,30.28,SW,215,0.0,6.7,42,0.00,,---,0.00,VWS V12.08,2013-01-09 17:39:00,
2013-01-09 12:59:00,46.8,24.8,30.28,West,268,3.6,6.3,42,0.00,,---,0.00,VWS V12.08,2013-01-09 17:59:00,
2013-01-09 13:19:00,47.3,25.3,30.28,WNW,284,4.0,6.3,42,0.00,,---,0.00,VWS V12.08,2013-01-09 18:19:00,
2013-01-09 13:39:00,48.2,25.4,30.28,West,272,2.2,7.6,41,0.00,,---,0.00,VWS V12.08,2013-01-09 18:39:00,
2013-01-09 13:59:00,48.4,25.6,30.25,West,266,0.0,5.8,41,0.00,,---,0.00,VWS V12.08,2013-01-09 18:59:00,
2013-01-09 14:19:00,48.6,25.8,30.19,SW,214,6.3,6.3,41,0.00,,---,0.00,VWS V12.08,2013-01-09 19:19:00,
2013-01-09 14:39:00,48.2,25.4,30.19,SE,144,5.8,8.1,41,0.00,,---,0.00,VWS V12.08,2013-01-09 19:39:00,
2013-01-09 14:59:00,48.2,25.4,30.19,SW,230,2.7,8.1,41,0.00,,---,0.00,VWS V12.08,2013-01-09 19:59:00,
2013-01-09 15:39:00,48.4,25.6,30.19,SSW,203,2.7,4.0,41,0.00,,---,0.00,VWS V12.08,2013-01-09 20:39:00,
2013-01-09 15:59:00,48.7,25.9,30.19,West,265,2.7,7.6,41,0.00,,---,0.00,VWS V12.08,2013-01-09 20:59:00,
2013-01-09 16:19:00,48.7,25.9,30.16,West,267,3.6,6.3,41,0.00,,---,0.00,VWS V12.08,2013-01-09 21:19:00,
2013-01-09 16:39:00,48.9,26.1,30.16,WSW,249,4.0,7.6,41,0.00,,---,0.00,VWS V12.08,2013-01-09 21:39:00,
2013-01-09 16:59:00,48.6,25.8,30.19,WNW,289,5.4,8.3,41,0.00,,---,0.00,VWS V12.08,2013-01-09 21:59:00,
2013-01-09 17:19:00,48.0,25.9,30.19,WNW,298,2.2,6.7,42,0.00,,---,0.00,VWS V12.08,2013-01-09 22:19:00,
2013-01-09 17:39:00,47.7,25.6,30.19,WSW,237,3.6,6.3,42,0.00,,---,0.00,VWS V12.08,2013-01-09 22:39:00,
2013-01-09 17:59:00,47.5,25.4,30.22,SW,226,3.1,6.3,42,0.00,,---,0.00,VWS V12.08,2013-01-09 22:59:00,
2013-01-09 18:19:00,45.9,24.0,30.19,SSW,212,0.0,3.1,42,0.00,,---,0.00,VWS V12.08,2013-01-09 23:19:00,
2013-01-09 18:39:00,43.0,22.0,30.22,NW,305,0.0,0.0,43,0.00,,---,0.00,VWS V12.08,2013-01-09 23:39:00,
2013-01-09 18:59:00,40.8,21.2,30.22,NW,305,0.0,0.0,45,0.00,,---,0.00,VWS V12.08,2013-01-09 23:59:00,
2013-01-09 19:19:00,39.0,20.1,30.22,WNW,303,0.0,0.0,46,0.00,,---,0.00,VWS V12.08,2013-01-10 00:19:00,
2013-01-09 19:39:00,37.6,19.3,30.25,NW,304,0.0,0.0,47,0.00,,---,0.00,VWS V12.08,2013-01-10 00:39:00,
2013-01-09 19:59:00,36.5,19.4,30.25,NW,305,0.0,0.0,50,0.00,,---,0.00,VWS V12.08,2013-01-10 00:59:00,
2013-01-09 20:19:00,35.8,18.2,30.25,NW,304,0.0,0.0,48,0.00,,---,0.00,VWS V12.08,2013-01-10 01:19:00,
2013-01-09 20:39:00,34.3,17.9,30.25,NW,305,0.0,0.0,51,0.00,,---,0.00,VWS V12.08,2013-01-10 01:39:00,
2013-01-09 20:59:00,33.8,17.9,30.25,NW,305,0.0,0.0,52,0.00,,---,0.00,VWS V12.08,2013-01-10 01:59:00,
2013-01-09 21:19:00,32.9,18.0,30.25,NW,305,0.0,0.0,54,0.00,,---,0.00,VWS V12.08,2013-01-10 02:19:00,
2013-01-09 21:39:00,32.7,18.8,30.25,NW,305,0.0,0.0,56,0.00,,---,0.00,VWS V12.08,2013-01-10 02:39:00,
2013-01-09 21:59:00,32.7,18.4,30.25,WNW,289,0.0,0.0,55,0.00,,---,0.00,VWS V12.08,2013-01-10 02:59:00,
2013-01-09 22:19:00,33.3,19.3,30.25,NNW,330,0.0,3.6,56,0.00,,---,0.00,VWS V12.08,2013-01-10 03:19:00,
2013-01-09 22:39:00,33.1,17.7,30.25,NNW,329,0.0,0.0,53,0.00,,---,0.00,VWS V12.08,2013-01-10 03:39:00,
2013-01-09 22:59:00,33.3,19.3,30.28,NNW,329,0.0,0.0,56,0.00,,---,0.00,VWS V12.08,2013-01-10 03:59:00,
2013-01-09 23:19:00,33.1,19.6,30.28,WNW,284,2.7,3.6,57,0.00,,---,0.00,VWS V12.08,2013-01-10 04:19:00,
2013-01-09 23:39:00,34.5,21.8,30.28,NW,316,0.0,6.7,59,0.00,,---,0.00,VWS V12.08,2013-01-10 04:39:00,
2013-01-09 23:59:00,35.8,21.2,30.28,West,272,2.7,5.8,55,0.00,,---,0.00,VWS V12.08,2013-01-10 04:59:00,